メインページ
METAR-TAF:

METAR-TAF

空港 :

新千歳空港

千歳, 日本

緯度: 42-48N, 経度: 141-40E, 海抜: 27m

現時点の気象観測

当レポートは18分前の11:30(UTC)に作成
北/北東の風 7kt
気温 10°C
湿度 82%
気圧 1017 hPa
視程10km以上
高度2000ftの雲はほとんどない

METAR: RJCC 201130Z 02007KT 9999 FEW020 10/07 Q1017 RMK 1CU020 A3005

時間: 20:48 (11:48 UTC)

予報

当レポートは43分前の11:05(UTC)に作成
予報は20日の 12時(UTC)から 21日の 18時(UTC)まで有効
の風 8kt
視程10km以上
高度3000ftの雲はほとんどない
21日の 12時(UTC)から 21日の 15時(UTC)まで徐々に
の風 9kt

TAF: RJCC 201105Z 2012/2118 35008KT 9999 FEW030 BECMG 2112/2115 18009KT

4,000以上の空港の気象観測と天気予報(METAR報とTAF報)

利用可能な観測所は地図上に黄色い丸と赤い丸で示す。

丸の上にカーソルを重ねると観測所名を参照できる。

次にクリックすると気象観測と天気予報を参照できる。

マップの切り替え:黒色「×」印の緑ボタンをクリックして拡大、「-」印の緑ボタンをクリックして縮小、緑色の三角印をクリックして隣りの地図に切り替え


METAR-TAF: